sensor_id;sensor_type;location;lat;lon;timestamp;temperature;humidity
46336;DHT22;31365;48.858;8.530;2023-07-29T00:00:33;18.70;99.90
46336;DHT22;31365;48.858;8.530;2023-07-29T00:03:01;18.70;99.90
46336;DHT22;31365;48.858;8.530;2023-07-29T00:05:31;18.80;99.90
46336;DHT22;31365;48.858;8.530;2023-07-29T00:08:00;18.80;99.90
46336;DHT22;31365;48.858;8.530;2023-07-29T00:10:30;18.80;99.90
46336;DHT22;31365;48.858;8.530;2023-07-29T00:12:59;18.70;99.90
46336;DHT22;31365;48.858;8.530;2023-07-29T00:15:28;18.70;99.90
46336;DHT22;31365;48.858;8.530;2023-07-29T00:18:01;18.70;99.90
46336;DHT22;31365;48.858;8.530;2023-07-29T00:20:30;18.70;99.90
46336;DHT22;31365;48.858;8.530;2023-07-29T00:22:58;18.70;99.90
46336;DHT22;31365;48.858;8.530;2023-07-29T00:25:28;18.80;99.90
46336;DHT22;31365;48.858;8.530;2023-07-29T00:27:58;18.80;99.90
46336;DHT22;31365;48.858;8.530;2023-07-29T00:30:27;18.70;99.90
46336;DHT22;31365;48.858;8.530;2023-07-29T00:32:55;18.70;99.90
46336;DHT22;31365;48.858;8.530;2023-07-29T00:35:23;18.70;99.90
46336;DHT22;31365;48.858;8.530;2023-07-29T00:37:53;18.80;99.90
46336;DHT22;31365;48.858;8.530;2023-07-29T00:40:22;18.80;99.90
46336;DHT22;31365;48.858;8.530;2023-07-29T00:42:51;18.80;99.90
46336;DHT22;31365;48.858;8.530;2023-07-29T00:45:20;18.80;99.90
46336;DHT22;31365;48.858;8.530;2023-07-29T00:47:49;18.80;99.90
46336;DHT22;31365;48.858;8.530;2023-07-29T00:50:18;18.80;99.90
46336;DHT22;31365;48.858;8.530;2023-07-29T00:52:48;18.80;99.90
46336;DHT22;31365;48.858;8.530;2023-07-29T00:55:18;18.80;99.90
46336;DHT22;31365;48.858;8.530;2023-07-29T00:57:47;18.80;99.90
46336;DHT22;31365;48.858;8.530;2023-07-29T01:00:18;18.70;99.90
46336;DHT22;31365;48.858;8.530;2023-07-29T01:02:47;18.70;99.90
46336;DHT22;31365;48.858;8.530;2023-07-29T01:05:16;18.70;99.90
46336;DHT22;31365;48.858;8.530;2023-07-29T01:07:51;18.70;99.90
46336;DHT22;31365;48.858;8.530;2023-07-29T01:10:30;18.70;99.90
46336;DHT22;31365;48.858;8.530;2023-07-29T01:13:17;18.70;99.90
46336;DHT22;31365;48.858;8.530;2023-07-29T01:15:55;18.60;99.90
46336;DHT22;31365;48.858;8.530;2023-07-29T01:18:31;18.60;99.90
46336;DHT22;31365;48.858;8.530;2023-07-29T01:21:04;18.50;99.90
46336;DHT22;31365;48.858;8.530;2023-07-29T01:23:38;18.40;99.90
46336;DHT22;31365;48.858;8.530;2023-07-29T01:26:06;18.40;99.90
46336;DHT22;31365;48.858;8.530;2023-07-29T01:28:35;18.30;99.90
46336;DHT22;31365;48.858;8.530;2023-07-29T01:31:10;18.30;99.90
46336;DHT22;31365;48.858;8.530;2023-07-29T01:33:50;18.20;99.90
46336;DHT22;31365;48.858;8.530;2023-07-29T01:36:28;18.10;99.90
46336;DHT22;31365;48.858;8.530;2023-07-29T01:39:03;18.10;99.90
46336;DHT22;31365;48.858;8.530;2023-07-29T01:41:33;18.00;99.90
46336;DHT22;31365;48.858;8.530;2023-07-29T01:44:03;18.00;99.90
46336;DHT22;31365;48.858;8.530;2023-07-29T01:46:33;18.00;99.90
46336;DHT22;31365;48.858;8.530;2023-07-29T01:49:01;18.00;99.90
46336;DHT22;31365;48.858;8.530;2023-07-29T01:51:30;17.90;99.90
46336;DHT22;31365;48.858;8.530;2023-07-29T01:53:59;18.00;99.90
46336;DHT22;31365;48.858;8.530;2023-07-29T01:56:29;18.00;99.90
46336;DHT22;31365;48.858;8.530;2023-07-29T01:58:57;17.90;99.90
46336;DHT22;31365;48.858;8.530;2023-07-29T02:01:27;17.90;99.90
46336;DHT22;31365;48.858;8.530;2023-07-29T02:03:56;17.80;99.90
46336;DHT22;31365;48.858;8.530;2023-07-29T02:06:25;17.80;99.90
46336;DHT22;31365;48.858;8.530;2023-07-29T02:08:54;17.80;99.90
46336;DHT22;31365;48.858;8.530;2023-07-29T02:11:23;17.80;99.90
46336;DHT22;31365;48.858;8.530;2023-07-29T02:13:57;17.90;99.90
46336;DHT22;31365;48.858;8.530;2023-07-29T02:16:26;17.80;99.90
46336;DHT22;31365;48.858;8.530;2023-07-29T02:18:54;17.90;99.90
46336;DHT22;31365;48.858;8.530;2023-07-29T02:21:23;17.90;99.90
46336;DHT22;31365;48.858;8.530;2023-07-29T02:23:51;17.90;99.90
46336;DHT22;31365;48.858;8.530;2023-07-29T02:26:19;18.00;99.90
46336;DHT22;31365;48.858;8.530;2023-07-29T02:28:48;18.00;99.90
46336;DHT22;31365;48.858;8.530;2023-07-29T02:31:20;18.00;99.90
46336;DHT22;31365;48.858;8.530;2023-07-29T02:33:50;18.00;99.90
46336;DHT22;31365;48.858;8.530;2023-07-29T02:36:19;18.00;99.90
46336;DHT22;31365;48.858;8.530;2023-07-29T02:38:47;18.10;99.90
46336;DHT22;31365;48.858;8.530;2023-07-29T02:41:15;18.10;99.90
46336;DHT22;31365;48.858;8.530;2023-07-29T02:43:47;18.10;99.90
46336;DHT22;31365;48.858;8.530;2023-07-29T02:46:18;18.10;99.90
46336;DHT22;31365;48.858;8.530;2023-07-29T02:48:47;18.20;99.90
46336;DHT22;31365;48.858;8.530;2023-07-29T02:51:16;18.20;99.90
46336;DHT22;31365;48.858;8.530;2023-07-29T02:53:44;18.20;99.90
46336;DHT22;31365;48.858;8.530;2023-07-29T02:56:12;18.20;99.90
46336;DHT22;31365;48.858;8.530;2023-07-29T02:58:41;18.20;99.90
46336;DHT22;31365;48.858;8.530;2023-07-29T03:01:09;18.20;99.90
46336;DHT22;31365;48.858;8.530;2023-07-29T03:03:39;18.20;99.90
46336;DHT22;31365;48.858;8.530;2023-07-29T03:06:10;18.20;99.90
46336;DHT22;31365;48.858;8.530;2023-07-29T03:08:40;18.20;99.90
46336;DHT22;31365;48.858;8.530;2023-07-29T03:11:10;18.30;99.90
46336;DHT22;31365;48.858;8.530;2023-07-29T03:13:40;18.30;99.90
46336;DHT22;31365;48.858;8.530;2023-07-29T03:16:10;18.30;99.90
46336;DHT22;31365;48.858;8.530;2023-07-29T03:18:46;18.40;99.90
46336;DHT22;31365;48.858;8.530;2023-07-29T03:21:16;18.40;99.90
46336;DHT22;31365;48.858;8.530;2023-07-29T03:23:44;18.40;99.90
46336;DHT22;31365;48.858;8.530;2023-07-29T03:26:13;18.40;99.90
46336;DHT22;31365;48.858;8.530;2023-07-29T03:28:42;18.40;99.90
46336;DHT22;31365;48.858;8.530;2023-07-29T03:31:11;18.40;99.90
46336;DHT22;31365;48.858;8.530;2023-07-29T03:33:40;18.40;99.90
46336;DHT22;31365;48.858;8.530;2023-07-29T03:36:10;18.40;99.90
46336;DHT22;31365;48.858;8.530;2023-07-29T03:38:39;18.50;99.90
46336;DHT22;31365;48.858;8.530;2023-07-29T03:41:08;18.50;99.90
46336;DHT22;31365;48.858;8.530;2023-07-29T03:43:37;18.50;99.90
46336;DHT22;31365;48.858;8.530;2023-07-29T03:46:05;18.50;99.90
46336;DHT22;31365;48.858;8.530;2023-07-29T03:48:39;18.60;99.90
46336;DHT22;31365;48.858;8.530;2023-07-29T03:51:07;18.70;99.90
46336;DHT22;31365;48.858;8.530;2023-07-29T03:53:38;18.80;99.90
46336;DHT22;31365;48.858;8.530;2023-07-29T03:56:06;18.80;99.90
46336;DHT22;31365;48.858;8.530;2023-07-29T03:58:34;18.80;99.90
46336;DHT22;31365;48.858;8.530;2023-07-29T04:01:03;18.90;99.90
46336;DHT22;31365;48.858;8.530;2023-07-29T04:03:32;18.90;99.90
46336;DHT22;31365;48.858;8.530;2023-07-29T04:06:02;18.90;99.90
46336;DHT22;31365;48.858;8.530;2023-07-29T04:08:31;18.90;99.90
46336;DHT22;31365;48.858;8.530;2023-07-29T04:11:01;18.90;99.90
46336;DHT22;31365;48.858;8.530;2023-07-29T04:13:29;18.80;99.90
46336;DHT22;31365;48.858;8.530;2023-07-29T04:15:57;18.80;99.90
46336;DHT22;31365;48.858;8.530;2023-07-29T04:18:27;18.80;99.90
46336;DHT22;31365;48.858;8.530;2023-07-29T04:20:55;18.70;99.90
46336;DHT22;31365;48.858;8.530;2023-07-29T04:23:24;18.80;99.90
46336;DHT22;31365;48.858;8.530;2023-07-29T04:25:52;18.80;99.90
46336;DHT22;31365;48.858;8.530;2023-07-29T04:28:22;18.80;99.90
46336;DHT22;31365;48.858;8.530;2023-07-29T04:30:50;18.80;99.90
46336;DHT22;31365;48.858;8.530;2023-07-29T04:33:19;18.90;99.90
46336;DHT22;31365;48.858;8.530;2023-07-29T04:35:47;18.80;99.90
46336;DHT22;31365;48.858;8.530;2023-07-29T04:38:15;18.90;99.90
46336;DHT22;31365;48.858;8.530;2023-07-29T04:40:43;18.90;99.90
46336;DHT22;31365;48.858;8.530;2023-07-29T04:43:13;18.90;99.90
46336;DHT22;31365;48.858;8.530;2023-07-29T04:45:44;18.90;99.90
46336;DHT22;31365;48.858;8.530;2023-07-29T04:48:13;19.00;99.90
46336;DHT22;31365;48.858;8.530;2023-07-29T04:50:41;19.00;99.90
46336;DHT22;31365;48.858;8.530;2023-07-29T04:53:09;19.10;99.90
46336;DHT22;31365;48.858;8.530;2023-07-29T04:55:37;19.20;99.90
46336;DHT22;31365;48.858;8.530;2023-07-29T04:58:06;19.30;99.90
46336;DHT22;31365;48.858;8.530;2023-07-29T05:00:35;19.30;99.90
46336;DHT22;31365;48.858;8.530;2023-07-29T05:03:05;19.40;99.90
46336;DHT22;31365;48.858;8.530;2023-07-29T05:05:33;19.40;99.90
46336;DHT22;31365;48.858;8.530;2023-07-29T05:08:02;19.50;99.90
46336;DHT22;31365;48.858;8.530;2023-07-29T05:10:31;19.50;99.90
46336;DHT22;31365;48.858;8.530;2023-07-29T05:12:59;19.50;99.90
46336;DHT22;31365;48.858;8.530;2023-07-29T05:15:28;19.40;99.90
46336;DHT22;31365;48.858;8.530;2023-07-29T05:17:56;19.50;99.90
46336;DHT22;31365;48.858;8.530;2023-07-29T05:20:26;19.50;99.90
46336;DHT22;31365;48.858;8.530;2023-07-29T05:22:55;19.50;99.90
46336;DHT22;31365;48.858;8.530;2023-07-29T05:25:24;19.50;99.90
46336;DHT22;31365;48.858;8.530;2023-07-29T05:27:52;19.60;99.90
46336;DHT22;31365;48.858;8.530;2023-07-29T05:30:21;19.60;99.90
46336;DHT22;31365;48.858;8.530;2023-07-29T05:32:49;19.70;99.90
46336;DHT22;31365;48.858;8.530;2023-07-29T05:35:18;19.70;99.90
46336;DHT22;31365;48.858;8.530;2023-07-29T05:37:48;19.80;99.90
46336;DHT22;31365;48.858;8.530;2023-07-29T05:40:16;19.90;99.90
46336;DHT22;31365;48.858;8.530;2023-07-29T05:42:45;19.90;99.90
46336;DHT22;31365;48.858;8.530;2023-07-29T05:45:14;19.90;99.90
46336;DHT22;31365;48.858;8.530;2023-07-29T05:47:43;20.00;99.90
46336;DHT22;31365;48.858;8.530;2023-07-29T05:50:11;20.00;99.90
46336;DHT22;31365;48.858;8.530;2023-07-29T05:52:39;20.10;99.90
46336;DHT22;31365;48.858;8.530;2023-07-29T05:55:09;20.20;99.90
46336;DHT22;31365;48.858;8.530;2023-07-29T05:57:38;20.30;99.90
46336;DHT22;31365;48.858;8.530;2023-07-29T06:00:11;20.30;99.90
46336;DHT22;31365;48.858;8.530;2023-07-29T06:02:40;20.30;99.90
46336;DHT22;31365;48.858;8.530;2023-07-29T06:05:13;20.30;99.90
46336;DHT22;31365;48.858;8.530;2023-07-29T06:07:42;20.30;99.90
46336;DHT22;31365;48.858;8.530;2023-07-29T06:10:15;20.40;99.90
46336;DHT22;31365;48.858;8.530;2023-07-29T06:12:45;20.30;99.90
46336;DHT22;31365;48.858;8.530;2023-07-29T06:15:14;20.30;99.90
46336;DHT22;31365;48.858;8.530;2023-07-29T06:17:43;20.20;99.90
46336;DHT22;31365;48.858;8.530;2023-07-29T06:20:11;20.10;99.90
46336;DHT22;31365;48.858;8.530;2023-07-29T06:22:40;20.00;99.90
46336;DHT22;31365;48.858;8.530;2023-07-29T06:25:09;19.90;99.90
46336;DHT22;31365;48.858;8.530;2023-07-29T06:27:39;19.90;99.90
46336;DHT22;31365;48.858;8.530;2023-07-29T06:30:08;19.90;99.90
46336;DHT22;31365;48.858;8.530;2023-07-29T06:32:37;19.90;99.90
46336;DHT22;31365;48.858;8.530;2023-07-29T06:35:05;19.90;99.90
46336;DHT22;31365;48.858;8.530;2023-07-29T06:37:34;19.90;99.90
46336;DHT22;31365;48.858;8.530;2023-07-29T06:40:03;19.90;99.90
46336;DHT22;31365;48.858;8.530;2023-07-29T06:42:32;19.80;99.90
46336;DHT22;31365;48.858;8.530;2023-07-29T06:45:03;19.80;99.90
46336;DHT22;31365;48.858;8.530;2023-07-29T06:47:32;19.80;99.90
46336;DHT22;31365;48.858;8.530;2023-07-29T06:50:00;19.80;99.90
46336;DHT22;31365;48.858;8.530;2023-07-29T06:52:29;19.80;99.90
46336;DHT22;31365;48.858;8.530;2023-07-29T06:54:58;19.90;99.90
46336;DHT22;31365;48.858;8.530;2023-07-29T06:57:26;19.90;99.90
46336;DHT22;31365;48.858;8.530;2023-07-29T06:59:55;20.00;99.90
46336;DHT22;31365;48.858;8.530;2023-07-29T07:02:24;20.10;99.90
46336;DHT22;31365;48.858;8.530;2023-07-29T07:04:53;20.10;99.90
46336;DHT22;31365;48.858;8.530;2023-07-29T07:07:22;20.10;99.90
46336;DHT22;31365;48.858;8.530;2023-07-29T07:09:50;20.20;99.90
46336;DHT22;31365;48.858;8.530;2023-07-29T07:12:19;20.10;99.90
46336;DHT22;31365;48.858;8.530;2023-07-29T07:15:09;20.10;99.90
46336;DHT22;31365;48.858;8.530;2023-07-29T07:17:39;20.10;99.90
46336;DHT22;31365;48.858;8.530;2023-07-29T07:20:08;20.00;99.90
46336;DHT22;31365;48.858;8.530;2023-07-29T07:22:37;20.10;99.90
46336;DHT22;31365;48.858;8.530;2023-07-29T07:25:06;20.10;99.90
46336;DHT22;31365;48.858;8.530;2023-07-29T07:27:36;20.20;99.90
46336;DHT22;31365;48.858;8.530;2023-07-29T07:30:05;20.30;99.90
46336;DHT22;31365;48.858;8.530;2023-07-29T07:32:35;20.50;99.90
46336;DHT22;31365;48.858;8.530;2023-07-29T07:35:06;20.50;99.90
46336;DHT22;31365;48.858;8.530;2023-07-29T07:37:38;20.70;99.90
46336;DHT22;31365;48.858;8.530;2023-07-29T07:40:07;20.80;99.90
46336;DHT22;31365;48.858;8.530;2023-07-29T07:42:36;20.80;99.90
46336;DHT22;31365;48.858;8.530;2023-07-29T07:45:05;20.90;99.90
46336;DHT22;31365;48.858;8.530;2023-07-29T07:47:33;21.10;99.90
46336;DHT22;31365;48.858;8.530;2023-07-29T07:50:02;21.20;99.90
46336;DHT22;31365;48.858;8.530;2023-07-29T07:52:32;21.30;99.90
46336;DHT22;31365;48.858;8.530;2023-07-29T07:55:01;21.40;99.90
46336;DHT22;31365;48.858;8.530;2023-07-29T07:57:29;21.40;99.90
46336;DHT22;31365;48.858;8.530;2023-07-29T07:59:57;21.40;99.90
46336;DHT22;31365;48.858;8.530;2023-07-29T08:02:25;21.30;99.90
46336;DHT22;31365;48.858;8.530;2023-07-29T08:04:54;21.10;99.90
46336;DHT22;31365;48.858;8.530;2023-07-29T08:07:22;21.00;99.90
46336;DHT22;31365;48.858;8.530;2023-07-29T08:09:52;21.00;99.90
46336;DHT22;31365;48.858;8.530;2023-07-29T08:12:20;20.90;99.90
46336;DHT22;31365;48.858;8.530;2023-07-29T08:14:48;20.90;99.90
46336;DHT22;31365;48.858;8.530;2023-07-29T08:17:16;20.90;99.90
46336;DHT22;31365;48.858;8.530;2023-07-29T08:19:44;20.90;99.90
46336;DHT22;31365;48.858;8.530;2023-07-29T08:22:30;20.90;99.90
46336;DHT22;31365;48.858;8.530;2023-07-29T08:25:00;21.00;99.90
46336;DHT22;31365;48.858;8.530;2023-07-29T08:27:29;21.00;99.90
46336;DHT22;31365;48.858;8.530;2023-07-29T08:29:57;21.10;99.90
46336;DHT22;31365;48.858;8.530;2023-07-29T08:32:26;21.20;99.90
46336;DHT22;31365;48.858;8.530;2023-07-29T08:34:54;21.40;99.90
46336;DHT22;31365;48.858;8.530;2023-07-29T08:37:22;21.60;99.90
46336;DHT22;31365;48.858;8.530;2023-07-29T08:39:51;21.70;99.90
46336;DHT22;31365;48.858;8.530;2023-07-29T08:42:23;21.70;99.90
46336;DHT22;31365;48.858;8.530;2023-07-29T08:44:56;21.70;99.90
46336;DHT22;31365;48.858;8.530;2023-07-29T08:47:33;21.70;99.90
46336;DHT22;31365;48.858;8.530;2023-07-29T08:50:03;21.60;99.90
46336;DHT22;31365;48.858;8.530;2023-07-29T08:52:33;21.60;99.90
46336;DHT22;31365;48.858;8.530;2023-07-29T08:55:02;21.60;99.90
46336;DHT22;31365;48.858;8.530;2023-07-29T08:57:35;21.60;99.90
46336;DHT22;31365;48.858;8.530;2023-07-29T09:00:05;21.60;99.90
46336;DHT22;31365;48.858;8.530;2023-07-29T09:02:35;21.70;99.90
46336;DHT22;31365;48.858;8.530;2023-07-29T09:05:04;21.70;99.90
46336;DHT22;31365;48.858;8.530;2023-07-29T09:07:34;21.70;99.90
46336;DHT22;31365;48.858;8.530;2023-07-29T09:10:08;21.70;99.90
46336;DHT22;31365;48.858;8.530;2023-07-29T09:12:39;21.50;99.90
46336;DHT22;31365;48.858;8.530;2023-07-29T09:15:09;21.30;99.90
46336;DHT22;31365;48.858;8.530;2023-07-29T09:17:37;21.00;99.90
46336;DHT22;31365;48.858;8.530;2023-07-29T09:20:10;20.60;99.90
46336;DHT22;31365;48.858;8.530;2023-07-29T09:22:39;20.30;99.90
46336;DHT22;31365;48.858;8.530;2023-07-29T09:25:08;20.10;99.90
46336;DHT22;31365;48.858;8.530;2023-07-29T09:27:36;20.00;99.90
46336;DHT22;31365;48.858;8.530;2023-07-29T09:30:15;19.90;99.90
46336;DHT22;31365;48.858;8.530;2023-07-29T09:32:44;19.90;99.90
46336;DHT22;31365;48.858;8.530;2023-07-29T09:35:13;19.80;99.90
46336;DHT22;31365;48.858;8.530;2023-07-29T09:37:41;19.70;99.90
46336;DHT22;31365;48.858;8.530;2023-07-29T09:40:14;19.70;99.90
46336;DHT22;31365;48.858;8.530;2023-07-29T09:42:48;19.70;99.90
46336;DHT22;31365;48.858;8.530;2023-07-29T09:45:22;19.60;99.90
46336;DHT22;31365;48.858;8.530;2023-07-29T09:47:53;19.50;99.90
46336;DHT22;31365;48.858;8.530;2023-07-29T09:50:23;19.40;99.90
46336;DHT22;31365;48.858;8.530;2023-07-29T09:52:52;19.30;99.90
46336;DHT22;31365;48.858;8.530;2023-07-29T09:55:23;19.30;99.90
46336;DHT22;31365;48.858;8.530;2023-07-29T09:57:53;19.40;99.90
46336;DHT22;31365;48.858;8.530;2023-07-29T10:00:25;19.60;99.90
46336;DHT22;31365;48.858;8.530;2023-07-29T10:02:53;19.80;99.90
46336;DHT22;31365;48.858;8.530;2023-07-29T10:05:22;19.90;99.90
46336;DHT22;31365;48.858;8.530;2023-07-29T10:07:54;20.10;99.90
46336;DHT22;31365;48.858;8.530;2023-07-29T10:10:23;20.30;99.90
46336;DHT22;31365;48.858;8.530;2023-07-29T10:12:52;20.40;99.90
46336;DHT22;31365;48.858;8.530;2023-07-29T10:15:22;20.50;99.90
46336;DHT22;31365;48.858;8.530;2023-07-29T10:17:52;20.40;99.90
46336;DHT22;31365;48.858;8.530;2023-07-29T10:20:21;20.30;99.90
46336;DHT22;31365;48.858;8.530;2023-07-29T10:22:50;20.30;99.90
46336;DHT22;31365;48.858;8.530;2023-07-29T10:25:24;20.40;99.90
46336;DHT22;31365;48.858;8.530;2023-07-29T10:28:07;20.50;99.90
46336;DHT22;31365;48.858;8.530;2023-07-29T10:30:36;20.70;99.90
46336;DHT22;31365;48.858;8.530;2023-07-29T10:33:06;20.90;99.90
46336;DHT22;31365;48.858;8.530;2023-07-29T10:35:36;21.10;99.90
46336;DHT22;31365;48.858;8.530;2023-07-29T10:38:05;21.40;99.90
46336;DHT22;31365;48.858;8.530;2023-07-29T10:40:46;21.60;99.90
46336;DHT22;31365;48.858;8.530;2023-07-29T10:43:24;21.90;99.90
46336;DHT22;31365;48.858;8.530;2023-07-29T10:45:57;22.00;99.90
46336;DHT22;31365;48.858;8.530;2023-07-29T10:48:44;22.00;99.90
46336;DHT22;31365;48.858;8.530;2023-07-29T10:51:23;22.00;99.90
46336;DHT22;31365;48.858;8.530;2023-07-29T10:53:58;22.10;99.90
46336;DHT22;31365;48.858;8.530;2023-07-29T10:56:29;22.30;99.90
46336;DHT22;31365;48.858;8.530;2023-07-29T10:59:02;22.40;99.90
46336;DHT22;31365;48.858;8.530;2023-07-29T11:01:59;22.50;99.90
46336;DHT22;31365;48.858;8.530;2023-07-29T11:04:30;22.60;99.90
46336;DHT22;31365;48.858;8.530;2023-07-29T11:07:19;22.80;99.90
46336;DHT22;31365;48.858;8.530;2023-07-29T11:09:58;22.90;99.90
46336;DHT22;31365;48.858;8.530;2023-07-29T11:12:38;23.20;99.90
46336;DHT22;31365;48.858;8.530;2023-07-29T11:15:15;23.20;99.90
46336;DHT22;31365;48.858;8.530;2023-07-29T11:17:50;23.20;99.90
46336;DHT22;31365;48.858;8.530;2023-07-29T11:20:21;23.20;99.90
46336;DHT22;31365;48.858;8.530;2023-07-29T11:22:54;23.40;99.90
46336;DHT22;31365;48.858;8.530;2023-07-29T11:25:25;23.70;99.90
46336;DHT22;31365;48.858;8.530;2023-07-29T11:27:58;23.90;99.90
46336;DHT22;31365;48.858;8.530;2023-07-29T11:30:32;24.40;99.90
46336;DHT22;31365;48.858;8.530;2023-07-29T11:33:01;24.90;99.90
46336;DHT22;31365;48.858;8.530;2023-07-29T11:35:32;25.60;99.90
46336;DHT22;31365;48.858;8.530;2023-07-29T11:38:00;26.20;99.90
46336;DHT22;31365;48.858;8.530;2023-07-29T11:40:29;26.40;99.90
46336;DHT22;31365;48.858;8.530;2023-07-29T11:42:57;26.50;99.90
46336;DHT22;31365;48.858;8.530;2023-07-29T11:45:26;26.40;99.90
46336;DHT22;31365;48.858;8.530;2023-07-29T11:48:12;26.30;99.90
46336;DHT22;31365;48.858;8.530;2023-07-29T11:50:42;26.30;99.90
46336;DHT22;31365;48.858;8.530;2023-07-29T11:53:11;26.40;99.90
46336;DHT22;31365;48.858;8.530;2023-07-29T11:55:43;26.40;99.90
46336;DHT22;31365;48.858;8.530;2023-07-29T11:58:11;26.20;99.90
46336;DHT22;31365;48.858;8.530;2023-07-29T12:00:40;26.00;99.90
46336;DHT22;31365;48.858;8.530;2023-07-29T12:03:09;26.00;99.90
46336;DHT22;31365;48.858;8.530;2023-07-29T12:05:41;26.00;99.90
46336;DHT22;31365;48.858;8.530;2023-07-29T12:08:09;25.90;99.90
46336;DHT22;31365;48.858;8.530;2023-07-29T12:10:38;26.10;99.90
46336;DHT22;31365;48.858;8.530;2023-07-29T12:13:08;26.30;99.90
46336;DHT22;31365;48.858;8.530;2023-07-29T12:15:38;26.40;99.90
46336;DHT22;31365;48.858;8.530;2023-07-29T12:18:07;26.80;99.90
46336;DHT22;31365;48.858;8.530;2023-07-29T12:20:36;27.00;99.90
46336;DHT22;31365;48.858;8.530;2023-07-29T12:23:06;26.70;99.90
46336;DHT22;31365;48.858;8.530;2023-07-29T12:25:35;26.70;99.90
46336;DHT22;31365;48.858;8.530;2023-07-29T12:28:04;26.50;99.90
46336;DHT22;31365;48.858;8.530;2023-07-29T12:30:33;26.30;99.90
46336;DHT22;31365;48.858;8.530;2023-07-29T12:33:02;26.20;99.90
46336;DHT22;31365;48.858;8.530;2023-07-29T12:35:36;26.00;99.90
46336;DHT22;31365;48.858;8.530;2023-07-29T12:38:06;26.10;99.90
46336;DHT22;31365;48.858;8.530;2023-07-29T12:40:38;26.30;99.90
46336;DHT22;31365;48.858;8.530;2023-07-29T12:43:07;26.40;99.90
46336;DHT22;31365;48.858;8.530;2023-07-29T12:45:36;26.50;99.90
46336;DHT22;31365;48.858;8.530;2023-07-29T12:48:07;26.90;99.90
46336;DHT22;31365;48.858;8.530;2023-07-29T12:50:35;27.40;99.90
46336;DHT22;31365;48.858;8.530;2023-07-29T12:53:06;27.60;99.90
46336;DHT22;31365;48.858;8.530;2023-07-29T12:55:35;27.40;99.90
46336;DHT22;31365;48.858;8.530;2023-07-29T12:58:04;27.30;99.90
46336;DHT22;31365;48.858;8.530;2023-07-29T13:00:32;27.50;99.90
46336;DHT22;31365;48.858;8.530;2023-07-29T13:03:01;26.90;99.90
46336;DHT22;31365;48.858;8.530;2023-07-29T13:05:32;26.80;99.90
46336;DHT22;31365;48.858;8.530;2023-07-29T13:08:00;26.80;99.90
46336;DHT22;31365;48.858;8.530;2023-07-29T13:10:30;27.00;99.90
46336;DHT22;31365;48.858;8.530;2023-07-29T13:12:58;26.90;99.90
46336;DHT22;31365;48.858;8.530;2023-07-29T13:15:27;26.90;99.90
46336;DHT22;31365;48.858;8.530;2023-07-29T13:17:55;27.00;99.90
46336;DHT22;31365;48.858;8.530;2023-07-29T13:20:23;27.00;99.90
46336;DHT22;31365;48.858;8.530;2023-07-29T13:22:52;27.10;99.90
46336;DHT22;31365;48.858;8.530;2023-07-29T13:25:20;27.10;99.90
46336;DHT22;31365;48.858;8.530;2023-07-29T13:27:49;27.00;99.90
46336;DHT22;31365;48.858;8.530;2023-07-29T13:30:18;26.90;99.90
46336;DHT22;31365;48.858;8.530;2023-07-29T13:32:46;27.00;99.90
46336;DHT22;31365;48.858;8.530;2023-07-29T13:35:15;27.70;99.90
46336;DHT22;31365;48.858;8.530;2023-07-29T13:37:43;28.40;99.90
46336;DHT22;31365;48.858;8.530;2023-07-29T13:40:11;28.80;99.90
46336;DHT22;31365;48.858;8.530;2023-07-29T13:42:40;29.80;99.90
46336;DHT22;31365;48.858;8.530;2023-07-29T13:45:10;30.90;99.90
46336;DHT22;31365;48.858;8.530;2023-07-29T13:47:38;31.60;99.90
46336;DHT22;31365;48.858;8.530;2023-07-29T13:50:07;31.90;99.90
46336;DHT22;31365;48.858;8.530;2023-07-29T13:52:36;32.10;99.90
46336;DHT22;31365;48.858;8.530;2023-07-29T13:55:05;32.00;99.90
46336;DHT22;31365;48.858;8.530;2023-07-29T13:57:34;32.00;99.90
46336;DHT22;31365;48.858;8.530;2023-07-29T14:00:03;32.00;99.90
46336;DHT22;31365;48.858;8.530;2023-07-29T14:02:38;31.80;99.90
46336;DHT22;31365;48.858;8.530;2023-07-29T14:05:07;31.50;99.90
46336;DHT22;31365;48.858;8.530;2023-07-29T14:07:35;31.30;99.90
46336;DHT22;31365;48.858;8.530;2023-07-29T14:10:04;31.70;99.90
46336;DHT22;31365;48.858;8.530;2023-07-29T14:12:33;31.70;99.90
46336;DHT22;31365;48.858;8.530;2023-07-29T14:15:04;31.30;99.90
46336;DHT22;31365;48.858;8.530;2023-07-29T14:17:33;30.70;99.90
46336;DHT22;31365;48.858;8.530;2023-07-29T14:20:03;30.30;99.90
46336;DHT22;31365;48.858;8.530;2023-07-29T14:22:32;30.40;99.90
46336;DHT22;31365;48.858;8.530;2023-07-29T14:25:00;30.30;99.90
46336;DHT22;31365;48.858;8.530;2023-07-29T14:27:29;30.60;99.90
46336;DHT22;31365;48.858;8.530;2023-07-29T14:29:57;30.50;99.90
46336;DHT22;31365;48.858;8.530;2023-07-29T14:32:25;30.40;99.90
46336;DHT22;31365;48.858;8.530;2023-07-29T14:34:54;30.70;99.90
46336;DHT22;31365;48.858;8.530;2023-07-29T14:37:24;30.70;99.90
46336;DHT22;31365;48.858;8.530;2023-07-29T14:39:52;30.70;99.90
46336;DHT22;31365;48.858;8.530;2023-07-29T14:42:20;30.60;99.90
46336;DHT22;31365;48.858;8.530;2023-07-29T14:44:49;30.90;99.90
46336;DHT22;31365;48.858;8.530;2023-07-29T14:47:17;30.80;99.90
46336;DHT22;31365;48.858;8.530;2023-07-29T14:49:46;31.00;99.90
46336;DHT22;31365;48.858;8.530;2023-07-29T14:52:14;31.00;99.90
46336;DHT22;31365;48.858;8.530;2023-07-29T14:54:43;31.30;99.90
46336;DHT22;31365;48.858;8.530;2023-07-29T14:57:12;31.00;99.90
46336;DHT22;31365;48.858;8.530;2023-07-29T14:59:40;30.70;99.90
46336;DHT22;31365;48.858;8.530;2023-07-29T15:02:09;30.70;99.90
46336;DHT22;31365;48.858;8.530;2023-07-29T15:04:37;30.60;99.90
46336;DHT22;31365;48.858;8.530;2023-07-29T15:07:06;30.60;99.90
46336;DHT22;31365;48.858;8.530;2023-07-29T15:09:34;30.50;99.90
46336;DHT22;31365;48.858;8.530;2023-07-29T15:12:05;30.50;99.90
46336;DHT22;31365;48.858;8.530;2023-07-29T15:14:34;30.40;99.90
46336;DHT22;31365;48.858;8.530;2023-07-29T15:17:02;30.20;99.90
46336;DHT22;31365;48.858;8.530;2023-07-29T15:19:31;29.80;99.90
46336;DHT22;31365;48.858;8.530;2023-07-29T15:21:59;29.80;99.90
46336;DHT22;31365;48.858;8.530;2023-07-29T15:24:27;29.60;99.90
46336;DHT22;31365;48.858;8.530;2023-07-29T15:26:57;29.30;99.90
46336;DHT22;31365;48.858;8.530;2023-07-29T15:29:27;28.80;99.90
46336;DHT22;31365;48.858;8.530;2023-07-29T15:31:55;28.60;99.90
46336;DHT22;31365;48.858;8.530;2023-07-29T15:34:24;28.40;99.90
46336;DHT22;31365;48.858;8.530;2023-07-29T15:36:52;28.40;99.90
46336;DHT22;31365;48.858;8.530;2023-07-29T15:39:21;28.30;99.90
46336;DHT22;31365;48.858;8.530;2023-07-29T15:41:49;28.40;99.90
46336;DHT22;31365;48.858;8.530;2023-07-29T15:44:19;28.40;99.90
46336;DHT22;31365;48.858;8.530;2023-07-29T15:46:49;28.30;99.90